Time;durP1;ratioP1;P1;durP2;ratioP2;P2;SDS_P1;SDS_P2;PMS_P1;PMS_P2;Temp;Humidity;BMP_temperature;BMP_pressure;BME280_temperature;BME280_humidity;BME280_pressure;Samples;Min_cycle;Max_cycle;Signal;HPM_P1;HPM_P2
2022/08/27 00:08:11;;;;;;;8.80;6.60;;;;;;;23.18;82.90;100124.46;655692;1280;139907;-89
2022/08/27 00:23:15;;;;;;;17.80;7.50;;;;;;;22.87;84.16;100109.50;657389;1280;141065;-88
2022/08/27 00:38:21;;;;;;;10.30;6.50;;;;;;;22.64;86.20;100111.91;656934;1279;139843;-88
2022/08/27 00:53:28;;;;;;;12.00;7.50;;;;;;;22.45;87.95;100114.09;656422;1279;140060;-89
2022/08/27 01:08:36;;;;;;;14.10;7.50;;;;;;;22.41;90.91;100115.28;655100;1280;140317;-87
2022/08/27 01:24:19;;;;;;;11.50;7.20;;;;;;;22.27;90.07;100110.59;655556;1279;140466;-90
2022/08/27 01:39:22;;;;;;;9.90;7.60;;;;;;;22.01;91.41;100104.21;655230;1280;139597;-90
2022/08/27 01:54:25;;;;;;;13.50;7.30;;;;;;;21.96;92.69;100112.31;657543;1280;138981;-90
2022/08/27 02:09:30;;;;;;;12.40;7.60;;;;;;;22.01;93.92;100116.64;656361;1280;139347;-90
2022/08/27 02:24:34;;;;;;;10.70;7.50;;;;;;;21.91;94.49;100112.83;656329;1279;138918;-90
2022/08/27 02:39:37;;;;;;;16.40;8.20;;;;;;;21.80;95.69;100110.74;657580;1280;140238;-90
2022/08/27 02:54:44;;;;;;;12.80;7.80;;;;;;;21.60;96.68;100100.95;656706;1279;140345;-90
2022/08/27 03:09:48;;;;;;;14.10;8.50;;;;;;;21.48;98.31;100102.94;656724;1280;139939;-88
2022/08/27 03:24:51;;;;;;;14.80;8.00;;;;;;;21.30;98.72;100093.73;657117;1279;138098;-90
2022/08/27 03:39:54;;;;;;;10.60;7.70;;;;;;;21.18;99.43;100097.88;657386;1280;140665;-91
2022/08/27 03:54:59;;;;;;;16.90;10.00;;;;;;;21.16;99.82;100094.55;657383;1280;139534;-90
2022/08/27 04:10:02;;;;;;;12.30;9.10;;;;;;;20.94;100.00;100096.25;655787;1281;139500;-90
2022/08/27 04:25:06;;;;;;;14.20;10.10;;;;;;;21.09;100.00;100106.01;657105;1280;139926;-91
2022/08/27 04:40:13;;;;;;;13.50;8.90;;;;;;;21.18;100.00;100106.23;657766;1279;139314;-91
2022/08/27 04:55:16;;;;;;;15.60;10.00;;;;;;;21.36;100.00;100101.83;657274;1279;139080;-90
2022/08/27 05:10:20;;;;;;;13.20;8.50;;;;;;;21.58;100.00;100095.08;657430;1280;140565;-89
2022/08/27 05:25:26;;;;;;;15.10;9.60;;;;;;;22.03;100.00;100091.14;656972;1280;138533;-89
2022/08/27 05:40:29;;;;;;;14.40;9.80;;;;;;;22.76;100.00;100095.94;657073;1280;139941;-91
2022/08/27 05:55:40;;;;;;;14.20;8.60;;;;;;;23.29;99.94;100105.98;657182;1280;139551;-92
2022/08/27 06:10:44;;;;;;;19.60;9.60;;;;;;;23.91;98.56;100102.48;657460;1281;140305;-90
2022/08/27 06:25:48;;;;;;;13.40;8.50;;;;;;;24.59;96.51;100102.85;657555;1281;139246;-90
2022/08/27 06:40:51;;;;;;;16.30;9.50;;;;;;;25.38;94.23;100106.66;656970;1280;140175;-92
2022/08/27 06:55:54;;;;;;;13.30;9.40;;;;;;;25.95;91.68;100101.42;654889;1280;1790818;-91
2022/08/27 07:10:58;;;;;;;13.30;8.60;;;;;;;26.92;89.85;100103.00;655545;1281;138699;-90
2022/08/27 07:26:09;;;;;;;12.70;8.10;;;;;;;28.13;87.63;100102.29;656995;1280;139244;-94
2022/08/27 07:41:12;;;;;;;10.30;8.30;;;;;;;29.23;84.32;100100.27;656604;1281;139746;-92
2022/08/27 07:56:16;;;;;;;9.60;7.80;;;;;;;30.33;81.63;100094.77;655296;1281;139669;-92
2022/08/27 08:11:20;;;;;;;11.20;7.50;;;;;;;31.23;79.30;100098.08;657227;1279;24372;-92
2022/08/27 08:26:23;;;;;;;14.40;7.60;;;;;;;32.06;75.34;100091.92;657049;1277;22806;-91
2022/08/27 08:41:27;;;;;;;9.50;7.60;;;;;;;32.67;72.83;100093.27;657305;1277;22771;-94
2022/08/27 08:57:14;;;;;;;13.60;7.60;;;;;;;33.52;69.77;100096.06;658302;1277;139471;-91
2022/08/27 09:12:26;;;;;;;7.50;6.00;;;;;;;34.09;66.19;100086.30;662941;1279;139846;-92
2022/08/27 09:27:31;;;;;;;9.90;7.30;;;;;;;34.77;63.16;100078.02;662777;1277;139657;-91
2022/08/27 09:42:42;;;;;;;9.50;7.00;;;;;;;35.46;61.33;100070.88;661046;1277;139415;-93
2022/08/27 09:57:47;;;;;;;9.60;7.00;;;;;;;35.78;58.88;100066.74;660535;1277;138732;-93
2022/08/27 10:13:02;;;;;;;11.10;6.50;;;;;;;36.27;56.42;100056.45;660277;1277;140191;-94
2022/08/27 10:28:35;;;;;;;7.20;6.40;;;;;;;36.91;53.42;100048.12;659417;1277;138279;-91
2022/08/27 10:44:02;;;;;;;11.80;6.20;;;;;;;37.07;51.19;100038.92;662058;1277;137979;-91
2022/08/27 10:59:14;;;;;;;9.30;6.10;;;;;;;37.15;49.22;100043.65;659401;1277;138408;-94
2022/08/27 11:14:29;;;;;;;7.70;6.30;;;;;;;37.73;49.31;100041.02;657950;1277;137879;-93
2022/08/27 11:29:45;;;;;;;9.40;6.00;;;;;;;38.26;48.03;100038.55;659160;1277;138010;-91
2022/08/27 11:44:52;;;;;;;7.10;5.40;;;;;;;38.45;46.60;100026.17;659716;1277;139190;-90
2022/08/27 11:59:56;;;;;;;8.80;5.30;;;;;;;38.12;44.18;100014.29;659642;1277;138148;-91
2022/08/27 12:15:37;;;;;;;6.50;5.80;;;;;;;37.68;44.19;100003.38;657716;1277;138202;-91
2022/08/27 12:30:48;;;;;;;8.60;5.20;;;;;;;38.03;40.99;99995.29;657654;1278;138547;-89
2022/08/27 12:46:02;;;;;;;8.40;5.60;;;;;;;38.22;38.58;99982.63;657545;1276;138095;-89
2022/08/27 13:01:25;;;;;;;11.00;5.70;;;;;;;38.76;39.02;99976.61;655928;1277;139289;-89
2022/08/27 13:16:30;;;;;;;7.10;5.40;;;;;;;38.77;39.03;99973.73;657605;1276;139505;-89
2022/08/27 13:31:34;;;;;;;7.30;5.40;;;;;;;38.00;39.48;99965.31;656633;1277;137891;-89
2022/08/27 13:46:51;;;;;;;10.40;5.00;;;;;;;38.04;40.01;99956.88;658982;1275;137782;-86
2022/08/27 14:02:09;;;;;;;13.30;8.00;;;;;;;37.92;41.09;99956.96;660671;1276;140163;-89
2022/08/27 14:17:34;;;;;;;6.80;5.10;;;;;;;42.32;39.53;99959.52;657537;1277;138763;-87
2022/08/27 14:32:38;;;;;;;38.20;16.90;;;;;;;48.34;34.20;99949.23;658793;1277;140100;-83
2022/08/27 14:47:42;;;;;;;;;;;;;;;50.18;33.63;99943.59;658154;1277;139738;-86
2022/08/27 15:02:47;;;;;;;6.00;4.40;;;;;;;51.90;33.40;99939.72;658015;1276;124296;-86
2022/08/27 15:17:50;;;;;;;6.30;5.50;;;;;;;46.71;34.51;99919.97;659360;1276;137914;-85
2022/08/27 15:32:54;;;;;;;5.70;4.50;;;;;;;48.26;34.46;99919.14;657283;1277;139359;-86
2022/08/27 15:47:59;;;;;;;9.10;4.60;;;;;;;49.22;32.94;99914.25;656644;1277;137825;-87
2022/08/27 16:03:08;;;;;;;11.90;7.20;;;;;;;41.95;36.56;99892.29;662668;1278;138989;-84
2022/08/27 16:18:12;;;;;;;12.90;6.10;;;;;;;38.56;40.83;99878.23;657784;1277;140225;-82
2022/08/27 16:33:17;;;;;;;85.50;35.80;;;;;;;37.62;42.56;99879.27;659771;1276;138937;-83
2022/08/27 17:03:47;;;;;;;21.30;18.40;;;;;;;34.70;48.47;99876.60;658897;1276;139266;-83
2022/08/27 17:19:11;;;;;;;55.30;41.10;;;;;;;33.25;50.69;99886.38;658757;1277;139013;-83
2022/08/27 17:34:22;;;;;;;19.30;9.70;;;;;;;32.24;54.40;99896.66;658019;1277;140281;-82
2022/08/27 17:49:26;;;;;;;20.00;12.00;;;;;;;30.97;55.82;99907.80;658274;1277;138106;-83
2022/08/27 18:04:30;;;;;;;31.50;19.90;;;;;;;29.86;59.54;99910.02;661079;1277;138076;-82
2022/08/27 18:19:34;;;;;;;31.00;22.10;;;;;;;29.24;62.42;99924.50;661234;1276;139617;-84
2022/08/27 18:34:39;;;;;;;37.90;25.40;;;;;;;28.48;64.86;99932.91;662189;1276;138238;-82
2022/08/27 18:49:42;;;;;;;25.20;20.30;;;;;;;27.85;67.63;99936.84;658452;1276;138214;-82
2022/08/27 19:04:46;;;;;;;25.40;15.90;;;;;;;27.30;70.03;99947.68;656451;1276;1885922;-81
2022/08/27 19:19:52;;;;;;;31.80;23.70;;;;;;;26.66;72.87;99955.42;658025;1277;138795;-82
2022/08/27 19:34:55;;;;;;;34.70;22.10;;;;;;;26.39;76.11;99960.76;658814;1277;138463;-82
2022/08/27 19:49:58;;;;;;;63.10;41.50;;;;;;;26.02;79.17;99965.30;659419;1277;139164;-81
2022/08/27 20:05:03;;;;;;;40.40;24.80;;;;;;;25.77;82.56;99959.71;661677;1276;139591;-80
2022/08/27 20:20:22;;;;;;;29.30;16.60;;;;;;;25.50;83.65;99972.52;660653;1277;138410;-80
2022/08/27 20:35:26;;;;;;;32.30;23.00;;;;;;;25.23;84.39;99985.05;660651;1277;138407;-82
2022/08/27 20:50:30;;;;;;;30.30;20.10;;;;;;;24.87;85.65;99983.92;659934;1277;138643;-82
2022/08/27 21:05:34;;;;;;;22.10;14.10;;;;;;;24.66;83.51;99977.38;659772;1277;139282;-81
2022/08/27 21:20:37;;;;;;;25.10;15.00;;;;;;;24.57;84.33;99975.61;659697;1277;138931;-82
2022/08/27 21:35:40;;;;;;;14.80;9.70;;;;;;;24.38;84.76;99967.95;659829;1277;138629;-80
2022/08/27 21:50:44;;;;;;;15.00;9.90;;;;;;;24.29;79.44;99972.60;657692;1277;138923;-83
2022/08/27 22:05:49;;;;;;;12.00;7.70;;;;;;;24.09;77.25;99967.30;658484;1277;138159;-81
2022/08/27 22:20:53;;;;;;;12.60;7.60;;;;;;;23.97;74.88;99967.72;656791;1277;139379;-81
2022/08/27 22:35:56;;;;;;;13.50;8.50;;;;;;;23.84;74.13;99968.27;657299;1277;138942;-82
2022/08/27 22:50:59;;;;;;;14.10;8.30;;;;;;;23.61;76.28;99961.31;661372;1277;138992;-82
2022/08/27 23:06:03;;;;;;;14.20;9.00;;;;;;;23.17;77.52;99955.46;657667;1276;138915;-82
2022/08/27 23:21:08;;;;;;;12.00;7.70;;;;;;;22.87;78.73;99948.27;657949;1276;139071;-82
2022/08/27 23:36:11;;;;;;;15.80;8.80;;;;;;;22.59;79.81;99940.07;657865;1277;138800;-83
2022/08/27 23:51:15;;;;;;;16.70;9.40;;;;;;;22.22;80.80;99929.71;657965;1276;139393;-83
